sensor_id;sensor_type;location;lat;lon;timestamp;temperature;humidity
39777;DHT22;25453;48.162;14.510;2023-02-18T00:00:16;12.10;73.30
39777;DHT22;25453;48.162;14.510;2023-02-18T00:02:44;12.10;73.40
39777;DHT22;25453;48.162;14.510;2023-02-18T00:05:12;12.10;73.40
39777;DHT22;25453;48.162;14.510;2023-02-18T00:07:39;12.00;73.40
39777;DHT22;25453;48.162;14.510;2023-02-18T00:10:09;12.00;73.40
39777;DHT22;25453;48.162;14.510;2023-02-18T00:12:37;12.00;73.50
39777;DHT22;25453;48.162;14.510;2023-02-18T00:15:04;12.00;73.50
39777;DHT22;25453;48.162;14.510;2023-02-18T00:17:31;12.00;73.60
39777;DHT22;25453;48.162;14.510;2023-02-18T00:19:58;12.00;73.60
39777;DHT22;25453;48.162;14.510;2023-02-18T00:22:25;12.00;73.60
39777;DHT22;25453;48.162;14.510;2023-02-18T00:24:52;12.00;73.60
39777;DHT22;25453;48.162;14.510;2023-02-18T00:27:19;12.00;73.70
39777;DHT22;25453;48.162;14.510;2023-02-18T00:29:45;12.10;73.70
39777;DHT22;25453;48.162;14.510;2023-02-18T00:32:12;12.10;73.70
39777;DHT22;25453;48.162;14.510;2023-02-18T00:34:39;12.10;73.60
39777;DHT22;25453;48.162;14.510;2023-02-18T00:37:06;12.10;73.50
39777;DHT22;25453;48.162;14.510;2023-02-18T00:39:33;12.10;73.50
39777;DHT22;25453;48.162;14.510;2023-02-18T00:42:00;12.20;73.50
39777;DHT22;25453;48.162;14.510;2023-02-18T00:44:27;12.20;73.40
39777;DHT22;25453;48.162;14.510;2023-02-18T00:46:54;12.20;73.40
39777;DHT22;25453;48.162;14.510;2023-02-18T00:49:20;12.30;73.40
39777;DHT22;25453;48.162;14.510;2023-02-18T00:51:47;12.30;73.30
39777;DHT22;25453;48.162;14.510;2023-02-18T00:54:14;12.30;73.30
39777;DHT22;25453;48.162;14.510;2023-02-18T00:56:41;12.30;73.30
39777;DHT22;25453;48.162;14.510;2023-02-18T00:59:08;12.30;73.20
39777;DHT22;25453;48.162;14.510;2023-02-18T01:01:35;12.30;73.20
39777;DHT22;25453;48.162;14.510;2023-02-18T01:04:02;12.30;73.20
39777;DHT22;25453;48.162;14.510;2023-02-18T01:06:29;12.30;73.20
39777;DHT22;25453;48.162;14.510;2023-02-18T01:08:56;12.40;73.10
39777;DHT22;25453;48.162;14.510;2023-02-18T01:11:23;12.40;73.10
39777;DHT22;25453;48.162;14.510;2023-02-18T01:13:51;12.40;73.10
39777;DHT22;25453;48.162;14.510;2023-02-18T01:16:18;12.40;73.10
39777;DHT22;25453;48.162;14.510;2023-02-18T01:18:45;12.40;73.10
39777;DHT22;25453;48.162;14.510;2023-02-18T01:21:12;12.30;73.00
39777;DHT22;25453;48.162;14.510;2023-02-18T01:23:39;12.40;73.10
39777;DHT22;25453;48.162;14.510;2023-02-18T01:26:07;12.40;73.10
39777;DHT22;25453;48.162;14.510;2023-02-18T01:28:35;12.40;73.10
39777;DHT22;25453;48.162;14.510;2023-02-18T01:31:03;12.40;73.10
39777;DHT22;25453;48.162;14.510;2023-02-18T01:33:32;12.30;73.10
39777;DHT22;25453;48.162;14.510;2023-02-18T01:35:59;12.30;73.10
39777;DHT22;25453;48.162;14.510;2023-02-18T01:38:26;12.30;73.10
39777;DHT22;25453;48.162;14.510;2023-02-18T01:40:53;12.30;73.10
39777;DHT22;25453;48.162;14.510;2023-02-18T01:43:20;12.30;73.10
39777;DHT22;25453;48.162;14.510;2023-02-18T01:48:29;12.30;73.10
39777;DHT22;25453;48.162;14.510;2023-02-18T01:53:42;12.30;73.20
39777;DHT22;25453;48.162;14.510;2023-02-18T01:56:12;12.30;73.20
39777;DHT22;25453;48.162;14.510;2023-02-18T01:58:41;12.30;73.20
39777;DHT22;25453;48.162;14.510;2023-02-18T02:01:09;12.30;73.10
39777;DHT22;25453;48.162;14.510;2023-02-18T02:03:36;12.30;73.20
39777;DHT22;25453;48.162;14.510;2023-02-18T02:06:05;12.30;73.20
39777;DHT22;25453;48.162;14.510;2023-02-18T02:08:33;12.30;73.20
39777;DHT22;25453;48.162;14.510;2023-02-18T02:11:02;12.30;73.20
39777;DHT22;25453;48.162;14.510;2023-02-18T02:13:38;12.30;73.20
39777;DHT22;25453;48.162;14.510;2023-02-18T02:16:10;12.30;73.20
39777;DHT22;25453;48.162;14.510;2023-02-18T02:29:36;12.30;73.10
39777;DHT22;25453;48.162;14.510;2023-02-18T02:45:03;12.30;72.90
39777;DHT22;25453;48.162;14.510;2023-02-18T02:50:09;12.30;72.90
39777;DHT22;25453;48.162;14.510;2023-02-18T02:52:43;12.30;72.80
39777;DHT22;25453;48.162;14.510;2023-02-18T02:55:11;12.30;72.80
39777;DHT22;25453;48.162;14.510;2023-02-18T02:57:43;12.30;72.80
39777;DHT22;25453;48.162;14.510;2023-02-18T03:00:11;12.30;72.80
39777;DHT22;25453;48.162;14.510;2023-02-18T03:08:04;12.30;72.70
39777;DHT22;25453;48.162;14.510;2023-02-18T03:10:47;12.30;72.80
39777;DHT22;25453;48.162;14.510;2023-02-18T03:18:41;12.40;72.70
39777;DHT22;25453;48.162;14.510;2023-02-18T03:21:28;12.40;72.80
39777;DHT22;25453;48.162;14.510;2023-02-18T03:23:59;12.40;72.70
39777;DHT22;25453;48.162;14.510;2023-02-18T03:26:27;12.40;72.80
39777;DHT22;25453;48.162;14.510;2023-02-18T03:28:57;12.40;72.80
39777;DHT22;25453;48.162;14.510;2023-02-18T03:31:26;12.40;73.10
39777;DHT22;25453;48.162;14.510;2023-02-18T03:33:55;12.40;73.30
39777;DHT22;25453;48.162;14.510;2023-02-18T03:36:26;12.40;73.50
39777;DHT22;25453;48.162;14.510;2023-02-18T03:39:02;12.40;73.50
39777;DHT22;25453;48.162;14.510;2023-02-18T03:41:30;12.40;73.70
39777;DHT22;25453;48.162;14.510;2023-02-18T03:43:59;12.30;73.70
39777;DHT22;25453;48.162;14.510;2023-02-18T03:46:26;12.30;73.60
39777;DHT22;25453;48.162;14.510;2023-02-18T03:48:53;12.30;73.70
39777;DHT22;25453;48.162;14.510;2023-02-18T03:51:20;12.30;73.80
39777;DHT22;25453;48.162;14.510;2023-02-18T03:53:48;12.30;73.80
39777;DHT22;25453;48.162;14.510;2023-02-18T03:56:15;12.20;73.80
39777;DHT22;25453;48.162;14.510;2023-02-18T03:58:42;12.20;73.90
39777;DHT22;25453;48.162;14.510;2023-02-18T04:01:09;12.20;73.90
39777;DHT22;25453;48.162;14.510;2023-02-18T04:03:36;12.20;73.90
39777;DHT22;25453;48.162;14.510;2023-02-18T04:06:04;12.20;73.90
39777;DHT22;25453;48.162;14.510;2023-02-18T04:08:31;12.20;74.00
39777;DHT22;25453;48.162;14.510;2023-02-18T04:10:58;12.20;74.00
39777;DHT22;25453;48.162;14.510;2023-02-18T04:13:25;12.20;74.00
39777;DHT22;25453;48.162;14.510;2023-02-18T04:15:52;12.20;74.10
39777;DHT22;25453;48.162;14.510;2023-02-18T04:18:19;12.20;74.10
39777;DHT22;25453;48.162;14.510;2023-02-18T04:20:46;12.20;74.10
39777;DHT22;25453;48.162;14.510;2023-02-18T04:23:13;12.20;74.20
39777;DHT22;25453;48.162;14.510;2023-02-18T04:25:40;12.20;74.20
39777;DHT22;25453;48.162;14.510;2023-02-18T04:28:07;12.10;74.20
39777;DHT22;25453;48.162;14.510;2023-02-18T04:30:36;12.10;74.30
39777;DHT22;25453;48.162;14.510;2023-02-18T04:33:03;12.10;74.30
39777;DHT22;25453;48.162;14.510;2023-02-18T04:35:30;12.10;74.40
39777;DHT22;25453;48.162;14.510;2023-02-18T04:37:57;12.10;74.30
39777;DHT22;25453;48.162;14.510;2023-02-18T04:40:24;12.10;74.40
39777;DHT22;25453;48.162;14.510;2023-02-18T04:42:56;12.10;74.50
39777;DHT22;25453;48.162;14.510;2023-02-18T04:45:23;12.10;74.50
39777;DHT22;25453;48.162;14.510;2023-02-18T04:47:51;12.10;74.50
39777;DHT22;25453;48.162;14.510;2023-02-18T04:50:18;12.10;74.50
39777;DHT22;25453;48.162;14.510;2023-02-18T04:52:45;12.10;74.50
39777;DHT22;25453;48.162;14.510;2023-02-18T04:55:12;12.10;74.60
39777;DHT22;25453;48.162;14.510;2023-02-18T04:57:39;12.10;74.60
39777;DHT22;25453;48.162;14.510;2023-02-18T05:00:07;12.10;74.70
39777;DHT22;25453;48.162;14.510;2023-02-18T05:02:34;12.10;74.80
39777;DHT22;25453;48.162;14.510;2023-02-18T05:05:01;12.10;74.90
39777;DHT22;25453;48.162;14.510;2023-02-18T05:07:28;12.10;75.00
39777;DHT22;25453;48.162;14.510;2023-02-18T05:09:55;12.10;75.10
39777;DHT22;25453;48.162;14.510;2023-02-18T05:12:22;12.10;75.10
39777;DHT22;25453;48.162;14.510;2023-02-18T05:14:48;12.10;75.20
39777;DHT22;25453;48.162;14.510;2023-02-18T05:17:15;12.10;75.30
39777;DHT22;25453;48.162;14.510;2023-02-18T05:19:42;12.10;75.40
39777;DHT22;25453;48.162;14.510;2023-02-18T05:22:09;12.00;75.40
39777;DHT22;25453;48.162;14.510;2023-02-18T05:24:36;12.00;75.50
39777;DHT22;25453;48.162;14.510;2023-02-18T05:27:03;12.00;75.50
39777;DHT22;25453;48.162;14.510;2023-02-18T05:29:30;12.00;75.60
39777;DHT22;25453;48.162;14.510;2023-02-18T05:31:57;12.00;75.70
39777;DHT22;25453;48.162;14.510;2023-02-18T05:34:24;11.90;75.70
39777;DHT22;25453;48.162;14.510;2023-02-18T05:36:50;11.90;75.90
39777;DHT22;25453;48.162;14.510;2023-02-18T05:39:17;11.90;75.90
39777;DHT22;25453;48.162;14.510;2023-02-18T05:41:44;11.90;76.20
39777;DHT22;25453;48.162;14.510;2023-02-18T05:44:11;11.90;76.30
39777;DHT22;25453;48.162;14.510;2023-02-18T05:47:01;11.80;76.30
39777;DHT22;25453;48.162;14.510;2023-02-18T05:49:28;11.80;76.30
39777;DHT22;25453;48.162;14.510;2023-02-18T05:51:55;11.80;76.40
39777;DHT22;25453;48.162;14.510;2023-02-18T05:54:22;11.80;76.50
39777;DHT22;25453;48.162;14.510;2023-02-18T05:56:49;11.80;76.50
39777;DHT22;25453;48.162;14.510;2023-02-18T05:59:16;11.80;76.60
39777;DHT22;25453;48.162;14.510;2023-02-18T06:01:43;11.80;76.70
39777;DHT22;25453;48.162;14.510;2023-02-18T06:04:11;11.80;76.70
39777;DHT22;25453;48.162;14.510;2023-02-18T06:06:37;11.80;76.70
39777;DHT22;25453;48.162;14.510;2023-02-18T06:09:05;11.80;76.70
39777;DHT22;25453;48.162;14.510;2023-02-18T06:11:32;11.80;76.70
39777;DHT22;25453;48.162;14.510;2023-02-18T06:13:59;11.90;76.60
39777;DHT22;25453;48.162;14.510;2023-02-18T06:16:27;11.90;76.60
39777;DHT22;25453;48.162;14.510;2023-02-18T06:18:54;11.90;76.60
39777;DHT22;25453;48.162;14.510;2023-02-18T06:21:21;11.90;76.40
39777;DHT22;25453;48.162;14.510;2023-02-18T06:23:48;11.90;76.40
39777;DHT22;25453;48.162;14.510;2023-02-18T06:26:15;11.90;76.30
39777;DHT22;25453;48.162;14.510;2023-02-18T06:28:42;11.90;76.20
39777;DHT22;25453;48.162;14.510;2023-02-18T06:31:08;11.90;76.20
39777;DHT22;25453;48.162;14.510;2023-02-18T06:33:35;11.90;76.20
39777;DHT22;25453;48.162;14.510;2023-02-18T06:36:04;11.90;76.10
39777;DHT22;25453;48.162;14.510;2023-02-18T06:38:35;11.90;76.10
39777;DHT22;25453;48.162;14.510;2023-02-18T06:41:02;12.00;76.10
39777;DHT22;25453;48.162;14.510;2023-02-18T06:43:29;12.00;76.10
39777;DHT22;25453;48.162;14.510;2023-02-18T06:45:56;12.00;76.10
39777;DHT22;25453;48.162;14.510;2023-02-18T06:48:23;12.00;76.00
39777;DHT22;25453;48.162;14.510;2023-02-18T06:50:53;12.00;76.10
39777;DHT22;25453;48.162;14.510;2023-02-18T06:53:20;12.00;76.10
39777;DHT22;25453;48.162;14.510;2023-02-18T06:55:47;12.00;76.20
39777;DHT22;25453;48.162;14.510;2023-02-18T06:58:15;12.00;76.20
39777;DHT22;25453;48.162;14.510;2023-02-18T07:00:42;12.00;76.30
39777;DHT22;25453;48.162;14.510;2023-02-18T07:03:10;12.00;76.40
39777;DHT22;25453;48.162;14.510;2023-02-18T07:05:38;11.90;76.50
39777;DHT22;25453;48.162;14.510;2023-02-18T07:08:05;11.90;76.70
39777;DHT22;25453;48.162;14.510;2023-02-18T07:10:32;11.90;76.90
39777;DHT22;25453;48.162;14.510;2023-02-18T07:12:59;11.90;77.00
39777;DHT22;25453;48.162;14.510;2023-02-18T07:15:26;11.90;77.20
39777;DHT22;25453;48.162;14.510;2023-02-18T07:17:53;11.90;77.30
39777;DHT22;25453;48.162;14.510;2023-02-18T07:20:20;11.90;77.50
39777;DHT22;25453;48.162;14.510;2023-02-18T07:22:48;11.90;77.60
39777;DHT22;25453;48.162;14.510;2023-02-18T07:25:15;11.90;77.60
39777;DHT22;25453;48.162;14.510;2023-02-18T07:27:42;11.90;77.90
39777;DHT22;25453;48.162;14.510;2023-02-18T07:30:10;11.90;77.90
39777;DHT22;25453;48.162;14.510;2023-02-18T07:32:37;11.90;78.10
39777;DHT22;25453;48.162;14.510;2023-02-18T07:35:04;11.90;78.20
39777;DHT22;25453;48.162;14.510;2023-02-18T07:37:31;11.90;78.30
39777;DHT22;25453;48.162;14.510;2023-02-18T07:39:59;11.90;78.40
39777;DHT22;25453;48.162;14.510;2023-02-18T07:42:26;11.90;78.50
39777;DHT22;25453;48.162;14.510;2023-02-18T07:44:53;11.90;78.60
39777;DHT22;25453;48.162;14.510;2023-02-18T07:47:20;11.90;78.60
39777;DHT22;25453;48.162;14.510;2023-02-18T07:49:47;11.90;78.70
39777;DHT22;25453;48.162;14.510;2023-02-18T07:52:14;11.90;78.80
39777;DHT22;25453;48.162;14.510;2023-02-18T07:54:44;11.80;78.90
39777;DHT22;25453;48.162;14.510;2023-02-18T07:57:11;11.80;79.00
39777;DHT22;25453;48.162;14.510;2023-02-18T07:59:38;11.80;79.10
39777;DHT22;25453;48.162;14.510;2023-02-18T08:02:05;11.90;79.20
39777;DHT22;25453;48.162;14.510;2023-02-18T08:04:33;11.90;79.30
39777;DHT22;25453;48.162;14.510;2023-02-18T08:07:00;11.90;79.30
39777;DHT22;25453;48.162;14.510;2023-02-18T08:09:27;11.90;79.40
39777;DHT22;25453;48.162;14.510;2023-02-18T08:11:54;11.90;79.50
39777;DHT22;25453;48.162;14.510;2023-02-18T08:14:21;12.00;79.50
39777;DHT22;25453;48.162;14.510;2023-02-18T08:16:48;12.00;79.50
39777;DHT22;25453;48.162;14.510;2023-02-18T08:19:15;12.10;79.60
39777;DHT22;25453;48.162;14.510;2023-02-18T08:21:41;12.10;79.50
39777;DHT22;25453;48.162;14.510;2023-02-18T08:24:08;12.10;79.40
39777;DHT22;25453;48.162;14.510;2023-02-18T08:26:35;12.20;79.30
39777;DHT22;25453;48.162;14.510;2023-02-18T08:29:03;12.20;79.30
39777;DHT22;25453;48.162;14.510;2023-02-18T08:31:30;12.20;79.30
39777;DHT22;25453;48.162;14.510;2023-02-18T08:33:58;12.30;79.30
39777;DHT22;25453;48.162;14.510;2023-02-18T08:36:26;12.40;79.30
39777;DHT22;25453;48.162;14.510;2023-02-18T08:38:53;12.40;79.20
39777;DHT22;25453;48.162;14.510;2023-02-18T08:41:20;12.50;79.00
39777;DHT22;25453;48.162;14.510;2023-02-18T08:43:47;12.60;78.80
39777;DHT22;25453;48.162;14.510;2023-02-18T08:46:14;12.60;78.60
39777;DHT22;25453;48.162;14.510;2023-02-18T08:49:00;12.70;78.20
39777;DHT22;25453;48.162;14.510;2023-02-18T08:51:27;12.80;78.20
39777;DHT22;25453;48.162;14.510;2023-02-18T08:53:54;12.90;77.90
39777;DHT22;25453;48.162;14.510;2023-02-18T08:56:21;12.90;77.70
39777;DHT22;25453;48.162;14.510;2023-02-18T08:58:48;12.90;77.10
39777;DHT22;25453;48.162;14.510;2023-02-18T09:01:15;13.00;77.50
39777;DHT22;25453;48.162;14.510;2023-02-18T09:03:42;13.10;77.60
39777;DHT22;25453;48.162;14.510;2023-02-18T09:06:10;13.40;77.40
39777;DHT22;25453;48.162;14.510;2023-02-18T09:08:37;13.60;77.00
39777;DHT22;25453;48.162;14.510;2023-02-18T09:11:04;13.90;76.10
39777;DHT22;25453;48.162;14.510;2023-02-18T09:13:32;14.10;75.40
39777;DHT22;25453;48.162;14.510;2023-02-18T09:16:00;14.30;74.40
39777;DHT22;25453;48.162;14.510;2023-02-18T09:18:27;14.40;73.20
39777;DHT22;25453;48.162;14.510;2023-02-18T09:20:55;14.40;71.80
39777;DHT22;25453;48.162;14.510;2023-02-18T09:23:23;14.30;71.20
39777;DHT22;25453;48.162;14.510;2023-02-18T09:25:50;14.20;71.10
39777;DHT22;25453;48.162;14.510;2023-02-18T09:28:17;14.00;71.00
39777;DHT22;25453;48.162;14.510;2023-02-18T09:30:44;13.90;70.90
39777;DHT22;25453;48.162;14.510;2023-02-18T09:33:11;13.70;71.10
39777;DHT22;25453;48.162;14.510;2023-02-18T09:35:41;13.60;71.50
39777;DHT22;25453;48.162;14.510;2023-02-18T09:38:09;13.50;71.60
39777;DHT22;25453;48.162;14.510;2023-02-18T09:40:37;13.40;71.80
39777;DHT22;25453;48.162;14.510;2023-02-18T09:43:05;13.30;71.90
39777;DHT22;25453;48.162;14.510;2023-02-18T09:45:32;13.30;71.90
39777;DHT22;25453;48.162;14.510;2023-02-18T09:47:59;13.30;71.90
39777;DHT22;25453;48.162;14.510;2023-02-18T09:50:33;13.30;71.90
39777;DHT22;25453;48.162;14.510;2023-02-18T09:53:01;13.30;71.90
39777;DHT22;25453;48.162;14.510;2023-02-18T09:55:37;13.40;72.10
39777;DHT22;25453;48.162;14.510;2023-02-18T10:00:42;13.80;72.60
39777;DHT22;25453;48.162;14.510;2023-02-18T10:03:20;14.10;71.60
39777;DHT22;25453;48.162;14.510;2023-02-18T10:08:22;14.30;69.10
39777;DHT22;25453;48.162;14.510;2023-02-18T10:10:50;14.30;69.00
39777;DHT22;25453;48.162;14.510;2023-02-18T10:13:21;14.30;69.10
39777;DHT22;25453;48.162;14.510;2023-02-18T10:15:48;14.30;68.60
39777;DHT22;25453;48.162;14.510;2023-02-18T10:18:24;14.30;68.90
39777;DHT22;25453;48.162;14.510;2023-02-18T10:20:52;14.40;68.70
39777;DHT22;25453;48.162;14.510;2023-02-18T10:23:21;14.40;68.80
39777;DHT22;25453;48.162;14.510;2023-02-18T10:25:50;14.70;69.80
39777;DHT22;25453;48.162;14.510;2023-02-18T10:28:18;14.90;68.10
39777;DHT22;25453;48.162;14.510;2023-02-18T10:30:53;15.10;66.70
39777;DHT22;25453;48.162;14.510;2023-02-18T10:41:25;15.20;66.20
39777;DHT22;25453;48.162;14.510;2023-02-18T10:43:57;15.20;65.90
39777;DHT22;25453;48.162;14.510;2023-02-18T10:51:25;15.60;65.20
39777;DHT22;25453;48.162;14.510;2023-02-18T10:53:54;15.80;64.90
39777;DHT22;25453;48.162;14.510;2023-02-18T11:01:39;16.10;62.60
39777;DHT22;25453;48.162;14.510;2023-02-18T11:04:17;16.10;61.60
39777;DHT22;25453;48.162;14.510;2023-02-18T11:06:45;16.10;61.10
39777;DHT22;25453;48.162;14.510;2023-02-18T11:09:59;16.20;60.60
39777;DHT22;25453;48.162;14.510;2023-02-18T11:12:01;16.30;60.40
39777;DHT22;25453;48.162;14.510;2023-02-18T11:14:44;16.50;59.60
39777;DHT22;25453;48.162;14.510;2023-02-18T11:17:14;16.60;58.50
39777;DHT22;25453;48.162;14.510;2023-02-18T11:19:45;16.70;58.10
39777;DHT22;25453;48.162;14.510;2023-02-18T11:22:18;16.60;57.40
39777;DHT22;25453;48.162;14.510;2023-02-18T11:24:46;16.60;56.60
39777;DHT22;25453;48.162;14.510;2023-02-18T11:27:40;16.70;56.70
39777;DHT22;25453;48.162;14.510;2023-02-18T11:30:13;16.70;55.90
39777;DHT22;25453;48.162;14.510;2023-02-18T11:32:41;16.80;55.30
39777;DHT22;25453;48.162;14.510;2023-02-18T11:35:16;16.80;55.60
39777;DHT22;25453;48.162;14.510;2023-02-18T11:37:44;16.90;55.50
39777;DHT22;25453;48.162;14.510;2023-02-18T11:40:30;17.00;55.20
39777;DHT22;25453;48.162;14.510;2023-02-18T11:45:32;17.10;55.20
39777;DHT22;25453;48.162;14.510;2023-02-18T11:48:00;17.30;55.10
39777;DHT22;25453;48.162;14.510;2023-02-18T11:50:30;17.40;54.80
39777;DHT22;25453;48.162;14.510;2023-02-18T11:52:57;17.50;54.30
39777;DHT22;25453;48.162;14.510;2023-02-18T11:55:26;17.60;54.10
39777;DHT22;25453;48.162;14.510;2023-02-18T11:57:57;17.60;54.30
39777;DHT22;25453;48.162;14.510;2023-02-18T12:00:35;17.70;53.90
39777;DHT22;25453;48.162;14.510;2023-02-18T12:03:05;17.80;53.60
39777;DHT22;25453;48.162;14.510;2023-02-18T12:05:33;17.70;53.40
39777;DHT22;25453;48.162;14.510;2023-02-18T12:10:37;17.50;53.60
39777;DHT22;25453;48.162;14.510;2023-02-18T12:13:19;17.50;53.60
39777;DHT22;25453;48.162;14.510;2023-02-18T12:21:25;17.40;54.00
39777;DHT22;25453;48.162;14.510;2023-02-18T12:24:02;17.40;53.80
39777;DHT22;25453;48.162;14.510;2023-02-18T12:32:04;17.30;53.80
39777;DHT22;25453;48.162;14.510;2023-02-18T12:34:41;17.30;53.80
39777;DHT22;25453;48.162;14.510;2023-02-18T12:53:26;16.50;55.40
39777;DHT22;25453;48.162;14.510;2023-02-18T13:03:26;16.60;55.90
39777;DHT22;25453;48.162;14.510;2023-02-18T13:08:40;16.70;55.70
39777;DHT22;25453;48.162;14.510;2023-02-18T13:16:29;16.80;55.40
39777;DHT22;25453;48.162;14.510;2023-02-18T13:19:02;16.80;55.80
39777;DHT22;25453;48.162;14.510;2023-02-18T13:21:31;16.80;55.90
39777;DHT22;25453;48.162;14.510;2023-02-18T13:24:05;16.80;55.70
39777;DHT22;25453;48.162;14.510;2023-02-18T13:26:33;16.80;55.90
39777;DHT22;25453;48.162;14.510;2023-02-18T13:34:23;16.90;55.90
39777;DHT22;25453;48.162;14.510;2023-02-18T13:39:38;16.90;55.70
39777;DHT22;25453;48.162;14.510;2023-02-18T13:50:13;16.60;55.30
39777;DHT22;25453;48.162;14.510;2023-02-18T13:52:41;16.50;55.30
39777;DHT22;25453;48.162;14.510;2023-02-18T13:55:20;16.30;55.40
39777;DHT22;25453;48.162;14.510;2023-02-18T13:57:48;16.20;55.60
39777;DHT22;25453;48.162;14.510;2023-02-18T14:00:24;16.20;55.90
39777;DHT22;25453;48.162;14.510;2023-02-18T14:02:58;16.20;55.90
39777;DHT22;25453;48.162;14.510;2023-02-18T14:05:37;16.20;56.00
39777;DHT22;25453;48.162;14.510;2023-02-18T14:08:10;16.10;56.20
39777;DHT22;25453;48.162;14.510;2023-02-18T14:10:38;16.10;56.30
39777;DHT22;25453;48.162;14.510;2023-02-18T14:31:04;15.90;57.20
39777;DHT22;25453;48.162;14.510;2023-02-18T14:33:33;15.90;57.30
39777;DHT22;25453;48.162;14.510;2023-02-18T14:36:07;15.80;57.60
39777;DHT22;25453;48.162;14.510;2023-02-18T14:38:41;15.80;57.70
39777;DHT22;25453;48.162;14.510;2023-02-18T14:51:44;15.60;57.90
39777;DHT22;25453;48.162;14.510;2023-02-18T14:54:15;15.60;58.00
39777;DHT22;25453;48.162;14.510;2023-02-18T14:57:05;15.60;58.10
39777;DHT22;25453;48.162;14.510;2023-02-18T14:59:33;15.60;58.20
39777;DHT22;25453;48.162;14.510;2023-02-18T15:02:00;15.60;58.30
39777;DHT22;25453;48.162;14.510;2023-02-18T15:04:27;15.60;58.30
39777;DHT22;25453;48.162;14.510;2023-02-18T15:06:58;15.60;58.40
39777;DHT22;25453;48.162;14.510;2023-02-18T15:09:25;15.60;58.40
39777;DHT22;25453;48.162;14.510;2023-02-18T15:12:00;15.60;58.40
39777;DHT22;25453;48.162;14.510;2023-02-18T15:14:31;15.60;58.30
39777;DHT22;25453;48.162;14.510;2023-02-18T15:16:59;15.60;58.30
39777;DHT22;25453;48.162;14.510;2023-02-18T15:19:27;15.60;58.20
39777;DHT22;25453;48.162;14.510;2023-02-18T15:21:56;15.60;58.00
39777;DHT22;25453;48.162;14.510;2023-02-18T15:24:31;15.60;57.90
39777;DHT22;25453;48.162;14.510;2023-02-18T15:26:59;15.60;57.70
39777;DHT22;25453;48.162;14.510;2023-02-18T15:29:28;15.60;57.50
39777;DHT22;25453;48.162;14.510;2023-02-18T15:31:56;15.50;57.60
39777;DHT22;25453;48.162;14.510;2023-02-18T15:36:51;15.40;57.40
39777;DHT22;25453;48.162;14.510;2023-02-18T15:39:17;15.40;57.40
39777;DHT22;25453;48.162;14.510;2023-02-18T15:41:44;15.40;57.30
39777;DHT22;25453;48.162;14.510;2023-02-18T15:44:17;15.30;57.30
39777;DHT22;25453;48.162;14.510;2023-02-18T15:46:46;15.30;57.40
39777;DHT22;25453;48.162;14.510;2023-02-18T15:49:19;15.30;57.40
39777;DHT22;25453;48.162;14.510;2023-02-18T15:51:46;15.20;57.40
39777;DHT22;25453;48.162;14.510;2023-02-18T15:54:15;15.20;57.30
39777;DHT22;25453;48.162;14.510;2023-02-18T15:56:44;15.20;57.40
39777;DHT22;25453;48.162;14.510;2023-02-18T15:59:24;15.10;57.40
39777;DHT22;25453;48.162;14.510;2023-02-18T16:01:56;15.10;57.60
39777;DHT22;25453;48.162;14.510;2023-02-18T16:04:27;15.00;57.60
39777;DHT22;25453;48.162;14.510;2023-02-18T16:06:54;15.00;57.70
39777;DHT22;25453;48.162;14.510;2023-02-18T16:09:24;15.00;57.80
39777;DHT22;25453;48.162;14.510;2023-02-18T16:11:52;14.90;57.80
39777;DHT22;25453;48.162;14.510;2023-02-18T16:14:22;14.90;57.90
39777;DHT22;25453;48.162;14.510;2023-02-18T16:17:05;14.90;58.10
39777;DHT22;25453;48.162;14.510;2023-02-18T16:19:33;14.80;58.10
39777;DHT22;25453;48.162;14.510;2023-02-18T16:22:04;14.80;58.20
39777;DHT22;25453;48.162;14.510;2023-02-18T16:24:37;14.80;58.20
39777;DHT22;25453;48.162;14.510;2023-02-18T16:27:07;14.70;58.30
39777;DHT22;25453;48.162;14.510;2023-02-18T16:29:40;14.70;58.40
39777;DHT22;25453;48.162;14.510;2023-02-18T16:32:07;14.60;58.50
39777;DHT22;25453;48.162;14.510;2023-02-18T16:34:34;14.60;58.70
39777;DHT22;25453;48.162;14.510;2023-02-18T16:37:01;14.60;58.80
39777;DHT22;25453;48.162;14.510;2023-02-18T16:39:48;14.60;58.80
39777;DHT22;25453;48.162;14.510;2023-02-18T16:42:17;14.50;58.90
39777;DHT22;25453;48.162;14.510;2023-02-18T16:44:44;14.50;59.00
39777;DHT22;25453;48.162;14.510;2023-02-18T16:47:14;14.50;59.10
39777;DHT22;25453;48.162;14.510;2023-02-18T16:49:43;14.50;59.10
39777;DHT22;25453;48.162;14.510;2023-02-18T16:52:10;14.50;59.20
39777;DHT22;25453;48.162;14.510;2023-02-18T16:54:38;14.50;59.30
39777;DHT22;25453;48.162;14.510;2023-02-18T16:57:05;14.50;59.30
39777;DHT22;25453;48.162;14.510;2023-02-18T16:59:32;14.50;59.30
39777;DHT22;25453;48.162;14.510;2023-02-18T17:01:59;14.50;59.40
39777;DHT22;25453;48.162;14.510;2023-02-18T17:04:26;14.50;59.50
39777;DHT22;25453;48.162;14.510;2023-02-18T17:06:53;14.50;59.60
39777;DHT22;25453;48.162;14.510;2023-02-18T17:09:21;14.50;59.60
39777;DHT22;25453;48.162;14.510;2023-02-18T17:11:49;14.50;59.50
39777;DHT22;25453;48.162;14.510;2023-02-18T17:14:17;14.50;59.40
39777;DHT22;25453;48.162;14.510;2023-02-18T17:16:45;14.50;59.40
39777;DHT22;25453;48.162;14.510;2023-02-18T17:19:12;14.50;59.40
39777;DHT22;25453;48.162;14.510;2023-02-18T17:21:39;14.50;59.50
39777;DHT22;25453;48.162;14.510;2023-02-18T17:24:10;14.50;59.50
39777;DHT22;25453;48.162;14.510;2023-02-18T17:26:37;14.50;59.50
39777;DHT22;25453;48.162;14.510;2023-02-18T17:29:04;14.50;59.60
39777;DHT22;25453;48.162;14.510;2023-02-18T17:31:41;14.50;59.70
39777;DHT22;25453;48.162;14.510;2023-02-18T17:34:14;14.50;59.70
39777;DHT22;25453;48.162;14.510;2023-02-18T17:36:42;14.50;59.80
39777;DHT22;25453;48.162;14.510;2023-02-18T17:39:12;14.40;59.80
39777;DHT22;25453;48.162;14.510;2023-02-18T17:41:40;14.40;59.90
39777;DHT22;25453;48.162;14.510;2023-02-18T17:46:40;14.40;60.10
39777;DHT22;25453;48.162;14.510;2023-02-18T17:49:07;14.40;60.10
39777;DHT22;25453;48.162;14.510;2023-02-18T17:51:34;14.40;60.30
39777;DHT22;25453;48.162;14.510;2023-02-18T17:54:03;14.40;60.30
39777;DHT22;25453;48.162;14.510;2023-02-18T17:56:29;14.40;60.30
39777;DHT22;25453;48.162;14.510;2023-02-18T17:58:56;14.40;60.40
39777;DHT22;25453;48.162;14.510;2023-02-18T18:01:23;14.40;60.50
39777;DHT22;25453;48.162;14.510;2023-02-18T18:03:50;14.40;60.50
39777;DHT22;25453;48.162;14.510;2023-02-18T18:06:18;14.40;60.50
39777;DHT22;25453;48.162;14.510;2023-02-18T18:08:46;14.30;60.50